createdAt,value
2023-03-12T00:00:17.342Z,74.27
2023-03-12T00:01:17.316Z,74.20
2023-03-12T00:02:17.431Z,74.17
2023-03-12T00:03:17.484Z,74.23
2023-03-12T00:04:17.295Z,74.24
2023-03-12T00:05:17.280Z,74.22
2023-03-12T00:06:17.286Z,74.20
2023-03-12T00:07:17.268Z,74.26
2023-03-12T00:08:17.298Z,74.25
2023-03-12T00:09:17.274Z,74.20
2023-03-12T00:10:17.240Z,74.11
2023-03-12T00:11:17.218Z,74.10
2023-03-12T00:12:17.234Z,74.10
2023-03-12T00:13:17.209Z,74.19
2023-03-12T00:14:17.208Z,74.25
2023-03-12T00:15:17.219Z,74.36
2023-03-12T00:16:17.232Z,74.49
2023-03-12T00:17:17.165Z,74.59
2023-03-12T00:18:17.190Z,74.67
2023-03-12T00:19:17.142Z,74.77
2023-03-12T00:20:17.145Z,74.88
2023-03-12T00:21:17.138Z,74.94
2023-03-12T00:22:17.185Z,74.99
2023-03-12T00:23:17.147Z,75.16
2023-03-12T00:24:17.112Z,75.23
2023-03-12T00:25:17.137Z,75.29
2023-03-12T00:26:17.085Z,75.34
2023-03-12T00:27:17.062Z,75.41
2023-03-12T00:28:17.081Z,75.52
2023-03-12T00:29:17.079Z,75.47
2023-03-12T00:30:17.034Z,75.42
2023-03-12T00:31:17.084Z,75.40
2023-03-12T00:32:17.081Z,75.44
2023-03-12T00:33:17.013Z,75.47
2023-03-12T00:34:17.013Z,75.67
2023-03-12T00:35:17.032Z,75.83
2023-03-12T00:36:16.997Z,76.02
2023-03-12T00:37:17.067Z,76.19
2023-03-12T00:38:16.967Z,76.32
2023-03-12T00:39:16.985Z,76.29
2023-03-12T00:40:16.962Z,76.37
2023-03-12T00:41:16.960Z,76.46
2023-03-12T00:42:16.964Z,76.53
2023-03-12T00:43:16.945Z,76.55
2023-03-12T00:44:16.921Z,76.61
2023-03-12T00:45:16.932Z,76.64
2023-03-12T00:46:16.985Z,76.63
2023-03-12T00:47:16.905Z,76.72
2023-03-12T00:48:16.904Z,76.93
2023-03-12T00:49:16.880Z,77.05
2023-03-12T00:50:16.902Z,77.07
2023-03-12T00:51:16.878Z,77.14
2023-03-12T00:52:16.867Z,77.32
2023-03-12T00:53:16.831Z,77.36
2023-03-12T00:54:16.844Z,77.39
2023-03-12T00:55:16.865Z,77.32
2023-03-12T00:56:16.810Z,77.19
2023-03-12T00:57:16.792Z,77.05
2023-03-12T00:58:16.800Z,77.05
2023-03-12T00:59:16.798Z,77.00
2023-03-12T01:00:16.792Z,77.02
2023-03-12T01:01:16.837Z,77.00
2023-03-12T01:02:16.773Z,77.05
2023-03-12T01:03:16.746Z,77.08
2023-03-12T01:04:16.773Z,77.05
2023-03-12T01:05:16.713Z,76.96
2023-03-12T01:06:16.713Z,76.90
2023-03-12T01:07:16.705Z,76.89
2023-03-12T01:08:16.751Z,76.98
2023-03-12T01:09:16.768Z,77.17
2023-03-12T01:10:16.665Z,77.37
2023-03-12T01:11:16.656Z,77.37
2023-03-12T01:12:16.699Z,77.20
2023-03-12T01:13:16.674Z,77.06
2023-03-12T01:14:16.699Z,77.07
2023-03-12T01:15:16.653Z,77.02
2023-03-12T01:16:16.738Z,77.00
2023-03-12T01:17:16.627Z,76.88
2023-03-12T01:18:16.627Z,76.85
2023-03-12T01:19:16.588Z,76.85
2023-03-12T01:20:16.618Z,76.88
2023-03-12T01:21:16.602Z,77.04
2023-03-12T01:22:16.612Z,77.10
2023-03-12T01:23:16.559Z,77.09
2023-03-12T01:24:16.570Z,77.01
2023-03-12T01:25:16.554Z,76.98
2023-03-12T01:26:16.542Z,76.91
2023-03-12T01:27:16.514Z,76.93
2023-03-12T01:28:16.559Z,76.98
2023-03-12T01:29:16.537Z,76.98
2023-03-12T01:30:16.505Z,76.97
2023-03-12T01:31:16.508Z,76.91
2023-03-12T01:32:16.536Z,76.91
2023-03-12T01:33:16.482Z,76.87
2023-03-12T01:34:16.476Z,76.94
2023-03-12T01:35:16.519Z,76.93
2023-03-12T01:36:16.518Z,76.99
2023-03-12T01:37:16.424Z,76.94
2023-03-12T01:38:16.425Z,76.95
2023-03-12T01:39:16.416Z,76.87
2023-03-12T01:40:16.439Z,76.86
2023-03-12T01:41:16.383Z,76.88
2023-03-12T01:42:16.416Z,76.90
2023-03-12T01:43:16.364Z,76.81
2023-03-12T01:44:16.377Z,76.79
2023-03-12T01:45:16.332Z,76.75
2023-03-12T01:46:16.463Z,76.73
2023-03-12T01:47:16.331Z,76.86
2023-03-12T01:48:16.321Z,77.03
2023-03-12T01:49:16.323Z,77.03
2023-03-12T01:50:16.285Z,76.99
2023-03-12T01:51:16.315Z,77.14
2023-03-12T01:52:16.346Z,77.07
2023-03-12T01:53:16.282Z,77.07
2023-03-12T01:54:16.277Z,77.06
2023-03-12T01:55:16.240Z,76.82
2023-03-12T01:56:16.228Z,76.61
2023-03-12T01:57:16.244Z,76.43
2023-03-12T01:58:16.248Z,76.34
2023-03-12T01:59:16.231Z,76.32
2023-03-12T02:00:16.206Z,76.28
2023-03-12T02:02:38.568Z,76.20
2023-03-12T02:03:39.612Z,75.94
2023-03-12T02:04:39.568Z,75.92
2023-03-12T02:05:39.538Z,76.32
2023-03-12T02:06:39.524Z,76.25
2023-03-12T02:07:39.529Z,76.12
2023-03-12T02:08:39.540Z,76.16
2023-03-12T02:09:39.514Z,76.14
2023-03-12T02:10:39.513Z,76.32
2023-03-12T02:11:39.481Z,76.23
2023-03-12T02:12:39.487Z,76.26
2023-03-12T02:13:39.469Z,76.16
2023-03-12T02:14:39.454Z,76.03
2023-03-12T02:15:39.485Z,76.01
2023-03-12T02:16:39.493Z,76.07
2023-03-12T02:17:39.467Z,76.22
2023-03-12T02:18:39.425Z,76.22
2023-03-12T02:19:39.420Z,76.27
2023-03-12T02:20:39.439Z,76.03
2023-03-12T02:21:39.403Z,75.82
2023-03-12T02:22:39.380Z,75.79
2023-03-12T02:23:39.373Z,75.72
2023-03-12T02:24:39.380Z,75.68
2023-03-12T02:25:39.387Z,75.65
2023-03-12T02:26:39.382Z,75.59
2023-03-12T02:27:39.344Z,75.56
2023-03-12T02:28:39.319Z,75.53
2023-03-12T02:29:39.316Z,75.60
2023-03-12T02:30:39.335Z,75.68
2023-03-12T02:31:39.340Z,75.68
2023-03-12T02:32:39.348Z,75.70
2023-03-12T02:33:39.293Z,75.68
2023-03-12T02:34:39.270Z,75.75
2023-03-12T02:35:39.270Z,75.82
2023-03-12T02:36:39.266Z,75.82
2023-03-12T02:37:39.255Z,75.82
2023-03-12T02:38:39.236Z,75.86
2023-03-12T02:39:39.260Z,75.94
2023-03-12T02:40:39.210Z,76.05
2023-03-12T02:41:39.200Z,76.15
2023-03-12T02:42:39.192Z,76.06
2023-03-12T02:43:39.209Z,76.10
2023-03-12T02:44:39.188Z,76.17
2023-03-12T02:45:39.239Z,76.17
2023-03-12T02:46:39.195Z,76.25
2023-03-12T02:47:39.163Z,76.37
2023-03-12T02:48:39.132Z,76.50
2023-03-12T02:49:39.129Z,76.59
2023-03-12T02:50:39.114Z,76.61
2023-03-12T02:51:39.146Z,76.63
2023-03-12T02:52:39.129Z,76.70
2023-03-12T02:53:39.092Z,76.83
2023-03-12T02:54:39.087Z,76.86
2023-03-12T02:55:39.101Z,77.03
2023-03-12T02:56:39.072Z,77.11
2023-03-12T02:57:39.050Z,77.10
2023-03-12T02:58:39.068Z,77.15
2023-03-12T02:59:39.060Z,77.24
2023-03-12T03:00:39.057Z,77.36
2023-03-12T03:01:39.034Z,77.39
2023-03-12T03:02:39.006Z,77.34
2023-03-12T03:03:39.015Z,77.29
2023-03-12T03:04:39.011Z,77.15
2023-03-12T03:05:38.984Z,77.05
2023-03-12T03:06:38.974Z,76.94
2023-03-12T03:07:38.968Z,76.89
2023-03-12T03:08:38.945Z,76.85
2023-03-12T03:09:38.969Z,76.73
2023-03-12T03:10:38.935Z,76.57
2023-03-12T03:11:38.960Z,76.38
2023-03-12T03:12:38.914Z,76.04
2023-03-12T03:13:38.900Z,75.94
2023-03-12T03:14:38.921Z,75.91
2023-03-12T03:15:38.920Z,75.80
2023-03-12T03:16:38.908Z,75.67
2023-03-12T03:17:38.884Z,75.65
2023-03-12T03:18:38.878Z,75.75
2023-03-12T03:19:38.850Z,75.76
2023-03-12T03:20:38.833Z,75.71
2023-03-12T03:21:38.832Z,75.76
2023-03-12T03:22:38.816Z,75.62
2023-03-12T03:23:38.814Z,75.64
2023-03-12T03:24:38.821Z,75.69
2023-03-12T03:25:38.801Z,75.69
2023-03-12T03:26:38.806Z,75.84
2023-03-12T03:27:38.787Z,75.97
2023-03-12T03:28:38.784Z,76.26
2023-03-12T03:29:38.770Z,76.56
2023-03-12T03:30:38.761Z,76.75
2023-03-12T03:31:38.731Z,76.80
2023-03-12T03:32:38.820Z,76.68
2023-03-12T03:33:38.717Z,76.87
2023-03-12T03:34:38.715Z,76.87
2023-03-12T03:35:38.744Z,76.62
2023-03-12T03:36:38.687Z,76.40
2023-03-12T03:37:38.680Z,76.37
2023-03-12T03:38:38.666Z,76.07
2023-03-12T03:39:38.657Z,75.65
2023-03-12T03:40:38.661Z,76.08
2023-03-12T03:41:38.646Z,76.36
2023-03-12T03:42:38.640Z,76.94
2023-03-12T03:43:38.618Z,77.27
2023-03-12T03:44:38.612Z,77.41
2023-03-12T03:45:38.599Z,77.52
2023-03-12T03:46:38.708Z,77.68
2023-03-12T03:47:38.589Z,77.71
2023-03-12T03:48:38.577Z,77.80
2023-03-12T03:49:38.566Z,77.96
2023-03-12T03:50:38.550Z,78.08
2023-03-12T03:51:38.559Z,78.19
2023-03-12T03:52:38.537Z,78.24
2023-03-12T03:53:38.528Z,78.27
2023-03-12T03:54:38.506Z,78.25
2023-03-12T03:55:38.504Z,78.20
2023-03-12T03:56:38.518Z,78.03
2023-03-12T03:57:38.501Z,77.63
2023-03-12T03:58:38.482Z,77.32
2023-03-12T03:59:38.466Z,77.08
2023-03-12T04:00:38.450Z,76.81
2023-03-12T04:01:38.472Z,76.50
2023-03-12T04:02:38.458Z,76.19
2023-03-12T04:03:38.521Z,76.03
2023-03-12T04:04:38.421Z,75.87
2023-03-12T04:05:38.470Z,75.81
2023-03-12T04:06:38.408Z,75.56
2023-03-12T04:07:38.388Z,75.38
2023-03-12T04:08:38.412Z,75.42
2023-03-12T04:09:38.369Z,75.43
2023-03-12T04:10:38.354Z,75.56
2023-03-12T04:11:38.359Z,75.34
2023-03-12T04:12:38.361Z,75.33
2023-03-12T04:13:38.327Z,75.38
2023-03-12T04:14:38.348Z,75.35
2023-03-12T04:15:38.357Z,74.99
2023-03-12T04:16:38.324Z,74.79
2023-03-12T04:17:38.315Z,74.56
2023-03-12T04:18:38.289Z,74.35
2023-03-12T04:19:38.274Z,74.34
2023-03-12T04:20:38.261Z,74.24
2023-03-12T04:21:38.277Z,74.27
2023-03-12T04:22:38.237Z,74.22
2023-03-12T04:23:38.278Z,74.04
2023-03-12T04:24:38.236Z,73.82
2023-03-12T04:25:38.216Z,73.65
2023-03-12T04:26:38.204Z,73.46
2023-03-12T04:27:38.247Z,73.19
2023-03-12T04:28:38.216Z,72.99
2023-03-12T04:29:38.202Z,72.88
2023-03-12T04:30:38.171Z,72.99
2023-03-12T04:31:38.317Z,72.92
2023-03-12T04:32:38.210Z,73.00
2023-03-12T04:33:38.140Z,73.19
2023-03-12T04:34:38.133Z,73.28
2023-03-12T04:35:38.189Z,73.14
2023-03-12T04:36:38.107Z,73.28
2023-03-12T04:37:38.121Z,73.17
2023-03-12T04:38:38.121Z,73.02
2023-03-12T04:39:38.087Z,72.86
2023-03-12T04:40:38.076Z,73.01
2023-03-12T04:41:38.075Z,73.15
2023-03-12T04:42:38.063Z,73.02
2023-03-12T04:43:38.059Z,72.90
2023-03-12T04:44:38.047Z,72.74
2023-03-12T04:45:38.022Z,72.81
2023-03-12T04:46:38.079Z,72.78
2023-03-12T04:47:38.068Z,73.07
2023-03-12T04:48:38.007Z,73.07
2023-03-12T04:49:37.998Z,73.11
2023-03-12T04:50:37.986Z,73.24
2023-03-12T04:51:37.998Z,73.32
2023-03-12T04:52:38.029Z,73.33
2023-03-12T04:53:38.094Z,73.49
2023-03-12T04:54:37.950Z,73.65
2023-03-12T04:55:37.943Z,73.73
2023-03-12T04:56:37.932Z,73.92
2023-03-12T04:57:37.933Z,73.97
2023-03-12T04:58:37.964Z,74.17
2023-03-12T04:59:37.899Z,74.34
2023-03-12T05:00:37.885Z,74.22
2023-03-12T05:01:37.885Z,74.35
2023-03-12T05:02:38.003Z,74.34
2023-03-12T05:03:37.873Z,74.44
2023-03-12T05:04:37.866Z,74.61
2023-03-12T05:05:37.853Z,74.74
2023-03-12T05:06:37.853Z,74.60
2023-03-12T05:07:37.832Z,74.61
2023-03-12T05:08:37.858Z,74.69
2023-03-12T05:09:37.823Z,74.78
2023-03-12T05:10:37.822Z,74.97
2023-03-12T05:11:39.714Z,74.96
2023-03-12T05:12:37.732Z,74.97
2023-03-12T05:13:37.710Z,75.07
2023-03-12T05:14:37.706Z,75.19
2023-03-12T05:15:37.695Z,75.12
2023-03-12T05:16:37.718Z,75.10
2023-03-12T05:17:37.676Z,75.11
2023-03-12T05:18:37.663Z,75.16
2023-03-12T05:19:37.643Z,75.15
2023-03-12T05:20:37.650Z,75.20
2023-03-12T05:21:37.646Z,75.46
2023-03-12T05:22:37.633Z,75.39
2023-03-12T05:23:37.621Z,75.38
2023-03-12T05:24:37.616Z,75.52
2023-03-12T05:25:37.588Z,75.61
2023-03-12T05:26:37.604Z,75.78
2023-03-12T05:27:37.573Z,75.95
2023-03-12T05:28:37.564Z,76.10
2023-03-12T05:29:37.558Z,76.16
2023-03-12T05:30:37.544Z,76.37
2023-03-12T05:31:37.670Z,76.39
2023-03-12T05:32:37.557Z,76.48
2023-03-12T05:33:37.526Z,76.77
2023-03-12T05:34:37.539Z,76.99
2023-03-12T05:35:37.547Z,77.33
2023-03-12T05:36:37.487Z,77.57
2023-03-12T05:37:37.476Z,77.72
2023-03-12T05:38:37.468Z,77.94
2023-03-12T05:39:37.468Z,78.14
2023-03-12T05:40:37.502Z,78.39
2023-03-12T05:41:37.437Z,78.71
2023-03-12T05:42:37.453Z,79.00
2023-03-12T05:43:37.426Z,79.26
2023-03-12T05:44:37.430Z,79.59
2023-03-12T05:45:37.453Z,79.93
2023-03-12T05:46:37.412Z,80.15
2023-03-12T05:47:37.395Z,80.34
2023-03-12T05:48:37.379Z,80.59
2023-03-12T05:49:37.385Z,81.03
2023-03-12T05:50:37.351Z,81.40
2023-03-12T05:51:37.386Z,81.74
2023-03-12T05:52:37.336Z,82.05
2023-03-12T05:53:37.341Z,82.36
2023-03-12T05:54:37.342Z,82.47
2023-03-12T05:55:37.297Z,82.67
2023-03-12T05:56:37.307Z,82.63
2023-03-12T05:57:37.279Z,82.70
2023-03-12T05:58:37.278Z,82.62
2023-03-12T05:59:37.276Z,82.76
2023-03-12T06:00:37.250Z,82.53
2023-03-12T06:01:37.265Z,82.42
2023-03-12T06:02:37.328Z,82.50
2023-03-12T06:03:37.303Z,82.72
2023-03-12T06:04:37.241Z,82.72
2023-03-12T06:05:37.202Z,82.59
2023-03-12T06:06:37.198Z,82.49
2023-03-12T06:07:37.189Z,82.45
2023-03-12T06:08:37.197Z,82.55
2023-03-12T06:09:37.180Z,82.65
2023-03-12T06:10:37.168Z,82.51
2023-03-12T06:11:37.148Z,82.72
2023-03-12T06:12:37.136Z,83.00
2023-03-12T06:13:37.138Z,83.25
2023-03-12T06:14:37.123Z,83.41
2023-03-12T06:15:37.101Z,83.59
2023-03-12T06:16:37.146Z,83.95
2023-03-12T06:17:37.097Z,84.34
2023-03-12T06:18:37.109Z,84.56
2023-03-12T06:19:37.059Z,84.64
2023-03-12T06:20:37.054Z,84.65
2023-03-12T06:21:37.047Z,84.74
2023-03-12T06:22:37.069Z,85.06
2023-03-12T06:23:37.042Z,85.26
2023-03-12T06:24:37.025Z,85.48
2023-03-12T06:25:37.031Z,85.60
2023-03-12T06:26:37.005Z,85.87
2023-03-12T06:27:36.998Z,86.05
2023-03-12T06:28:36.975Z,86.14
2023-03-12T06:29:36.989Z,86.26
2023-03-12T06:30:36.983Z,86.51
2023-03-12T06:31:38.871Z,86.66
2023-03-12T06:32:36.991Z,86.87
2023-03-12T06:33:36.936Z,86.96
2023-03-12T06:34:36.954Z,86.99
2023-03-12T06:35:36.944Z,87.03
2023-03-12T06:36:36.918Z,87.20
2023-03-12T06:37:36.909Z,87.40
2023-03-12T06:38:36.883Z,87.50
2023-03-12T06:39:36.968Z,87.64
2023-03-12T06:40:36.862Z,87.80
2023-03-12T06:41:36.866Z,87.93
2023-03-12T06:42:36.868Z,87.99
2023-03-12T06:43:36.846Z,88.08
2023-03-12T06:44:36.839Z,88.05
2023-03-12T06:45:36.821Z,87.95
2023-03-12T06:46:36.887Z,87.91
2023-03-12T06:47:36.853Z,87.91
2023-03-12T06:48:36.840Z,87.94
2023-03-12T06:49:36.781Z,88.00
2023-03-12T06:50:36.764Z,88.00
2023-03-12T06:51:36.754Z,88.00
2023-03-12T06:52:36.757Z,87.98
2023-03-12T06:53:36.750Z,87.95
2023-03-12T06:54:36.749Z,87.94
2023-03-12T06:55:36.725Z,87.91
2023-03-12T06:56:36.710Z,87.92
2023-03-12T06:57:36.709Z,88.00
2023-03-12T06:58:36.718Z,87.93
2023-03-12T06:59:36.690Z,87.86
2023-03-12T07:00:36.673Z,87.76
2023-03-12T07:01:36.706Z,87.63
2023-03-12T07:02:36.752Z,87.63
2023-03-12T07:03:36.653Z,87.66
2023-03-12T07:04:36.691Z,87.72
2023-03-12T07:05:36.651Z,87.84
2023-03-12T07:06:36.622Z,87.81
2023-03-12T07:07:36.719Z,87.81
2023-03-12T07:08:36.599Z,87.94
2023-03-12T07:09:36.606Z,87.97
2023-03-12T07:10:36.584Z,87.99
2023-03-12T07:11:36.559Z,88.00
2023-03-12T07:12:36.566Z,88.08
2023-03-12T07:13:36.548Z,88.12
2023-03-12T07:14:36.562Z,88.12
2023-03-12T07:15:36.536Z,88.20
2023-03-12T07:16:36.532Z,88.31
2023-03-12T07:17:36.506Z,88.39
2023-03-12T07:18:36.509Z,88.40
2023-03-12T07:19:36.526Z,88.47
2023-03-12T07:20:36.485Z,88.55
2023-03-12T07:21:36.508Z,88.58
2023-03-12T07:22:36.459Z,88.60
2023-03-12T07:23:36.455Z,88.61
2023-03-12T07:24:36.448Z,88.56
2023-03-12T07:25:36.444Z,88.34
2023-03-12T07:26:36.446Z,88.28
2023-03-12T07:27:36.442Z,88.29
2023-03-12T07:28:36.411Z,88.28
2023-03-12T07:29:36.399Z,88.25
2023-03-12T07:30:36.384Z,88.28
2023-03-12T07:31:36.437Z,88.24
2023-03-12T07:32:36.390Z,88.18
2023-03-12T07:33:36.490Z,88.02
2023-03-12T07:34:36.368Z,87.84
2023-03-12T07:35:36.414Z,87.65
2023-03-12T07:36:36.600Z,87.52
2023-03-12T07:37:36.342Z,87.30
2023-03-12T07:38:36.312Z,87.26
2023-03-12T07:39:36.382Z,87.21
2023-03-12T07:40:36.286Z,87.18
2023-03-12T07:41:36.273Z,87.18
2023-03-12T07:42:36.306Z,86.85
2023-03-12T07:43:36.279Z,86.52
2023-03-12T07:44:36.255Z,86.33
2023-03-12T07:45:36.300Z,86.10
2023-03-12T07:46:36.273Z,85.87
2023-03-12T07:47:36.355Z,85.76
2023-03-12T07:48:36.216Z,85.45
2023-03-12T07:49:36.194Z,85.34
2023-03-12T07:50:36.202Z,85.22
2023-03-12T07:51:36.191Z,85.53
2023-03-12T07:52:36.222Z,85.61
2023-03-12T07:53:36.150Z,85.58
2023-03-12T07:54:36.174Z,85.56
2023-03-12T07:55:36.199Z,85.35
2023-03-12T07:56:36.222Z,85.10
2023-03-12T07:57:36.137Z,85.17
2023-03-12T07:58:36.171Z,85.14
2023-03-12T07:59:36.098Z,85.17
2023-03-12T08:00:36.122Z,84.98
2023-03-12T08:01:36.248Z,85.30
2023-03-12T08:02:36.175Z,85.86
2023-03-12T08:03:36.352Z,86.03
2023-03-12T08:04:36.202Z,85.97
2023-03-12T08:05:36.058Z,86.26
2023-03-12T08:06:36.025Z,86.40
2023-03-12T08:07:36.104Z,86.49
2023-03-12T08:08:36.131Z,86.25
2023-03-12T08:09:36.001Z,86.21
2023-03-12T08:10:36.049Z,86.34
2023-03-12T08:11:35.990Z,86.39
2023-03-12T08:12:35.985Z,86.59
2023-03-12T08:13:35.966Z,86.63
2023-03-12T08:14:36.093Z,86.67
2023-03-12T08:15:35.934Z,86.67
2023-03-12T08:16:36.029Z,86.70
2023-03-12T08:17:35.917Z,86.73
2023-03-12T08:18:35.924Z,86.73
2023-03-12T08:19:35.930Z,86.81
2023-03-12T08:20:35.887Z,86.82
2023-03-12T08:21:35.881Z,86.71
2023-03-12T08:22:35.877Z,86.46
2023-03-12T08:23:35.873Z,86.53
2023-03-12T08:24:35.859Z,86.72
2023-03-12T08:25:35.854Z,86.88
2023-03-12T08:26:35.826Z,86.85
2023-03-12T08:27:35.816Z,86.92
2023-03-12T08:28:35.812Z,86.89
2023-03-12T08:29:35.796Z,86.83
2023-03-12T08:30:35.802Z,86.88
2023-03-12T08:31:35.808Z,86.93
2023-03-12T08:32:35.984Z,86.99
2023-03-12T08:33:35.774Z,86.91
2023-03-12T08:34:35.750Z,86.84
2023-03-12T08:35:35.744Z,86.78
2023-03-12T08:36:35.752Z,86.76
2023-03-12T08:37:35.720Z,86.77
2023-03-12T08:38:35.706Z,86.84
2023-03-12T08:39:35.715Z,86.88
2023-03-12T08:40:35.709Z,86.66
2023-03-12T08:41:35.670Z,86.83
2023-03-12T08:42:35.691Z,86.96
2023-03-12T08:43:35.660Z,86.99
2023-03-12T08:44:35.690Z,86.89
2023-03-12T08:45:35.672Z,86.77
2023-03-12T08:46:35.641Z,86.83
2023-03-12T08:47:35.647Z,87.01
2023-03-12T08:48:35.628Z,87.24
2023-03-12T08:49:35.621Z,87.29
2023-03-12T08:50:35.593Z,87.08
2023-03-12T08:51:35.590Z,86.99
2023-03-12T08:52:35.586Z,86.89
2023-03-12T08:53:35.563Z,86.82
2023-03-12T08:54:35.568Z,86.64
2023-03-12T08:55:35.545Z,86.72
2023-03-12T08:56:35.575Z,86.59
2023-03-12T08:57:35.524Z,86.66
2023-03-12T08:58:35.527Z,86.55
2023-03-12T08:59:35.516Z,86.67
2023-03-12T09:00:35.494Z,86.74
2023-03-12T09:01:35.510Z,86.83
2023-03-12T09:02:35.504Z,86.62
2023-03-12T09:03:35.460Z,86.61
2023-03-12T09:04:35.494Z,86.94
2023-03-12T09:05:35.449Z,86.90
2023-03-12T09:06:35.475Z,86.94
2023-03-12T09:07:35.440Z,86.83
2023-03-12T09:08:35.420Z,86.58
2023-03-12T09:09:35.420Z,86.38
2023-03-12T09:10:35.452Z,86.02
2023-03-12T09:11:35.399Z,86.02
2023-03-12T09:12:35.371Z,85.58
2023-03-12T09:13:54.996Z,85.54
2023-03-12T09:15:02.884Z,85.28
2023-03-12T09:15:35.365Z,84.87
2023-03-12T09:16:35.425Z,84.83
2023-03-12T09:17:35.332Z,85.03
2023-03-12T09:18:35.334Z,85.29
2023-03-12T09:19:35.316Z,84.73
2023-03-12T09:20:35.307Z,84.16
2023-03-12T09:21:35.293Z,84.01
2023-03-12T09:22:35.284Z,83.91
2023-03-12T09:23:35.260Z,84.22
2023-03-12T09:24:35.265Z,84.56
2023-03-12T09:25:35.239Z,84.55
2023-03-12T09:26:35.234Z,84.45
2023-03-12T09:27:35.251Z,84.92
2023-03-12T09:28:35.228Z,85.40
2023-03-12T09:29:37.931Z,85.68
2023-03-12T09:30:35.233Z,85.84
2023-03-12T09:31:35.181Z,85.75
2023-03-12T09:32:35.189Z,85.75
2023-03-12T09:33:35.176Z,85.35
2023-03-12T09:34:35.169Z,85.54
2023-03-12T09:35:35.172Z,85.66
2023-03-12T09:36:35.128Z,85.40
2023-03-12T09:37:35.164Z,85.45
2023-03-12T09:38:35.125Z,85.64
2023-03-12T09:39:35.099Z,85.73
2023-03-12T09:40:35.112Z,85.66
2023-03-12T09:41:35.078Z,85.59
2023-03-12T09:42:35.076Z,85.64
2023-03-12T09:43:35.088Z,85.77
2023-03-12T09:44:35.059Z,85.95
2023-03-12T09:45:35.054Z,86.17
2023-03-12T09:46:35.035Z,86.05
2023-03-12T09:47:35.014Z,85.97
2023-03-12T09:48:35.022Z,86.03
2023-03-12T09:49:35.004Z,85.84
2023-03-12T09:50:35.009Z,85.72
2023-03-12T09:51:34.986Z,85.58
2023-03-12T09:52:34.978Z,85.34
2023-03-12T09:53:34.989Z,85.03
2023-03-12T09:54:34.968Z,85.13
2023-03-12T09:55:34.968Z,85.46
2023-03-12T09:56:34.938Z,85.00
2023-03-12T09:57:34.963Z,85.14
2023-03-12T09:58:34.904Z,85.21
2023-03-12T09:59:34.905Z,85.56
2023-03-12T10:00:34.890Z,85.64
2023-03-12T10:01:34.892Z,85.52
2023-03-12T10:02:34.865Z,85.28
2023-03-12T10:03:35.050Z,85.14
2023-03-12T10:04:48.717Z,85.34
2023-03-12T10:05:34.867Z,85.58
2023-03-12T10:06:34.846Z,85.45
2023-03-12T10:07:34.843Z,85.55
2023-03-12T10:08:34.806Z,85.65
2023-03-12T10:09:34.801Z,85.49
2023-03-12T10:10:34.786Z,85.56
2023-03-12T10:11:34.791Z,85.51
2023-03-12T10:12:34.798Z,85.36
2023-03-12T10:13:34.781Z,85.31
2023-03-12T10:14:34.745Z,85.48
2023-03-12T10:15:34.770Z,85.63
2023-03-12T10:16:34.722Z,85.71
2023-03-12T10:17:34.717Z,85.86
2023-03-12T10:18:34.854Z,85.67
2023-03-12T10:19:34.710Z,85.23
2023-03-12T10:20:34.702Z,85.10
2023-03-12T10:21:34.692Z,85.55
2023-03-12T10:22:34.673Z,85.90
2023-03-12T10:23:34.668Z,85.94
2023-03-12T10:24:34.650Z,85.85
2023-03-12T10:25:34.657Z,85.82
2023-03-12T10:26:34.635Z,86.26
2023-03-12T10:27:34.636Z,86.41
2023-03-12T10:28:34.617Z,85.95
2023-03-12T10:29:34.609Z,85.69
2023-03-12T10:30:34.602Z,85.85
2023-03-12T10:31:34.585Z,86.15
2023-03-12T10:32:34.614Z,86.10
2023-03-12T10:33:34.554Z,86.05
2023-03-12T10:34:34.567Z,86.21
2023-03-12T10:35:34.628Z,86.46
2023-03-12T10:36:34.544Z,86.55
2023-03-12T10:37:34.521Z,86.33
2023-03-12T10:38:34.539Z,86.06
2023-03-12T10:39:34.500Z,85.96
2023-03-12T10:40:34.532Z,85.80
2023-03-12T10:41:35.111Z,85.77
2023-03-12T10:42:34.486Z,85.79
2023-03-12T10:43:34.461Z,85.74
2023-03-12T10:44:34.437Z,85.64
2023-03-12T10:45:34.445Z,85.68
2023-03-12T10:46:34.730Z,85.96
2023-03-12T10:47:34.416Z,85.71
2023-03-12T10:48:34.404Z,85.63
2023-03-12T10:49:34.404Z,85.86
2023-03-12T10:50:34.447Z,86.10
2023-03-12T10:51:34.372Z,85.83
2023-03-12T10:52:34.375Z,85.81
2023-03-12T10:53:34.366Z,85.45
2023-03-12T10:54:34.345Z,85.29
2023-03-12T10:55:34.338Z,85.14
2023-03-12T10:56:34.345Z,85.31
2023-03-12T10:57:34.333Z,85.15
2023-03-12T10:58:34.302Z,85.14
2023-03-12T10:59:34.294Z,85.20
2023-03-12T11:00:34.288Z,85.27
2023-03-12T11:01:34.322Z,85.18
2023-03-12T11:02:34.279Z,84.76
2023-03-12T11:03:34.259Z,84.69
2023-03-12T11:04:34.247Z,84.88
2023-03-12T11:05:34.308Z,84.94
2023-03-12T11:06:34.222Z,84.88
2023-03-12T11:07:34.240Z,84.41
2023-03-12T11:08:34.229Z,84.28
2023-03-12T11:09:34.203Z,84.75
2023-03-12T11:10:34.185Z,84.76
2023-03-12T11:11:34.206Z,84.61
2023-03-12T11:12:34.160Z,84.63
2023-03-12T11:13:34.172Z,84.55
2023-03-12T11:14:34.168Z,84.48
2023-03-12T11:15:34.136Z,84.33
2023-03-12T11:16:34.143Z,83.87
2023-03-12T11:17:34.112Z,83.99
2023-03-12T11:18:34.128Z,84.08
2023-03-12T11:19:34.093Z,84.18
2023-03-12T11:20:34.084Z,84.05
2023-03-12T11:21:34.072Z,83.98
2023-03-12T11:22:34.064Z,83.82
2023-03-12T11:23:34.078Z,83.59
2023-03-12T11:24:34.046Z,83.68
2023-03-12T11:25:34.041Z,83.68
2023-03-12T11:26:34.018Z,83.42
2023-03-12T11:27:34.051Z,83.21
2023-03-12T11:28:34.015Z,83.28
2023-03-12T11:29:34.015Z,83.37
2023-03-12T11:30:34.038Z,83.46
2023-03-12T11:31:34.007Z,83.69
2023-03-12T11:32:33.966Z,83.55
2023-03-12T11:33:33.969Z,83.12
2023-03-12T11:34:33.950Z,83.08
2023-03-12T11:35:33.946Z,83.09
2023-03-12T11:36:33.932Z,82.96
2023-03-12T11:37:33.920Z,83.17
2023-03-12T11:38:33.920Z,82.92
2023-03-12T11:39:33.915Z,82.56
2023-03-12T11:40:33.896Z,82.23
2023-03-12T11:41:33.886Z,82.28
2023-03-12T11:42:33.868Z,82.29
2023-03-12T11:43:43.225Z,81.87
2023-03-12T11:44:33.844Z,81.69
2023-03-12T11:45:33.850Z,81.30
2023-03-12T11:46:33.848Z,81.14
2023-03-12T11:47:33.860Z,80.94
2023-03-12T11:48:33.816Z,80.79
2023-03-12T11:49:33.806Z,80.30
2023-03-12T11:50:33.800Z,79.56
2023-03-12T11:51:33.788Z,79.81
2023-03-12T11:52:34.612Z,79.43
2023-03-12T11:53:33.822Z,79.72
2023-03-12T11:54:33.741Z,79.78
2023-03-12T11:55:33.748Z,79.79
2023-03-12T11:56:33.725Z,79.70
2023-03-12T11:57:33.762Z,79.78
2023-03-12T11:58:33.698Z,79.99
2023-03-12T11:59:33.686Z,79.19
2023-03-12T12:00:33.684Z,79.45
2023-03-12T12:01:33.669Z,79.31
2023-03-12T12:02:33.653Z,79.36
2023-03-12T12:03:33.780Z,78.92
2023-03-12T12:04:33.640Z,78.41
2023-03-12T12:05:33.651Z,77.40
2023-03-12T12:06:33.635Z,76.88
2023-03-12T12:07:33.616Z,74.70
2023-03-12T12:08:33.619Z,75.54
2023-03-12T12:09:33.591Z,76.45
2023-03-12T12:10:33.602Z,76.40
2023-03-12T12:11:33.573Z,75.89
2023-03-12T12:12:33.685Z,76.50
2023-03-12T12:13:33.565Z,76.73
2023-03-12T12:14:33.535Z,76.39
2023-03-12T12:15:33.591Z,76.20
2023-03-12T12:16:33.597Z,76.47
2023-03-12T12:17:33.507Z,76.43
2023-03-12T12:18:33.521Z,76.98
2023-03-12T12:19:33.517Z,76.68
2023-03-12T12:20:33.473Z,76.55
2023-03-12T12:21:33.474Z,76.48
2023-03-12T12:22:33.456Z,76.88
2023-03-12T12:23:33.463Z,76.69
2023-03-12T12:24:33.478Z,76.23
2023-03-12T12:25:33.427Z,76.22
2023-03-12T12:26:33.420Z,75.94
2023-03-12T12:27:33.412Z,76.45
2023-03-12T12:28:33.488Z,76.62
2023-03-12T12:29:36.542Z,76.70
2023-03-12T12:30:33.398Z,76.52
2023-03-12T12:31:33.480Z,77.16
2023-03-12T12:32:33.466Z,77.30
2023-03-12T12:33:33.348Z,77.17
2023-03-12T12:34:33.353Z,77.13
2023-03-12T12:35:33.362Z,77.30
2023-03-12T12:36:33.328Z,77.58
2023-03-12T12:37:33.308Z,77.81
2023-03-12T12:38:33.296Z,78.06
2023-03-12T12:39:33.279Z,78.64
2023-03-12T12:40:33.273Z,78.91
2023-03-12T12:41:33.278Z,78.71
2023-03-12T12:42:33.253Z,79.19
2023-03-12T12:43:33.253Z,79.69
2023-03-12T12:44:33.243Z,80.07
2023-03-12T12:45:33.242Z,79.86
2023-03-12T12:46:33.209Z,79.31
2023-03-12T12:47:33.209Z,78.62
2023-03-12T12:48:33.183Z,78.22
2023-03-12T12:49:33.181Z,78.02
2023-03-12T12:50:33.172Z,77.54
2023-03-12T12:51:33.171Z,77.02
2023-03-12T12:52:33.202Z,75.77
2023-03-12T12:53:33.158Z,75.38